Time;durP1;ratioP1;P1;durP2;ratioP2;P2;SDS_P1;SDS_P2;PMS_P1;PMS_P2;Temp;Humidity;BMP_temperature;BMP_pressure;BME280_temperature;BME280_humidity;BME280_pressure;Samples;Min_cycle;Max_cycle;Signal;HPM_P1;HPM_P2
2023/12/30 09:29:42;;;;;;;;;37.50;32.00;;;;;;;;5083898;27;13448;-73
2023/12/30 09:32:17;;;;;;;;;38.00;35.00;;;;;;;;5024577;28;11512;-73
2023/12/30 09:34:42;;;;;;;;;29.25;28.75;;;;;;;;5023666;28;11517;-72
2023/12/30 09:37:11;;;;;;;;;42.25;32.75;;;;;;;;5022491;28;12349;-73
2023/12/30 09:39:57;;;;;;;;;33.00;30.75;;;;;;;;4967750;28;9893;-72
2023/12/30 09:42:22;;;;;;;;;31.75;30.25;;;;;;;;4983463;28;11546;-73
2023/12/30 09:44:48;;;;;;;;;30.00;26.50;;;;;;;;4997526;28;12324;-73
2023/12/30 09:47:13;;;;;;;;;36.25;31.75;;;;;;;;5002722;28;8819;-72
2023/12/30 09:49:40;;;;;;;;;623.75;449.00;;;;;;;;4963872;28;10610;-72
2023/12/30 09:52:06;;;;;;;;;18.00;16.00;;;;;;;;5011895;28;11293;-78
2023/12/30 09:54:32;;;;;;;;;29.00;27.75;;;;;;;;5006278;28;11499;-74
2023/12/30 09:56:59;;;;;;;;;38.00;32.50;;;;;;;;4980043;28;11636;-72
2023/12/30 09:59:26;;;;;;;;;33.00;25.25;;;;;;;;4986497;28;11479;-72
2023/12/30 10:01:53;;;;;;;;;33.75;30.25;;;;;;;;4983663;28;11491;-73
2023/12/30 10:04:18;;;;;;;;;39.50;33.00;;;;;;;;4982514;28;11594;-72
2023/12/30 10:06:54;;;;;;;;;34.50;33.00;;;;;;;;4984195;28;12065;-74
2023/12/30 10:09:23;;;;;;;;;48.50;39.00;;;;;;;;5007386;28;9547;-73
2023/12/30 10:11:51;;;;;;;;;35.75;33.75;;;;;;;;5026309;28;12347;-75
2023/12/30 10:14:19;;;;;;;;;39.25;34.00;;;;;;;;5026296;28;11584;-76
2023/12/30 10:16:44;;;;;;;;;42.00;35.00;;;;;;;;5024936;28;12303;-75
2023/12/30 10:19:13;;;;;;;;;39.50;34.75;;;;;;;;5029218;28;11591;-74
2023/12/30 10:21:39;;;;;;;;;33.75;32.75;;;;;;;;5044867;28;8815;-73
2023/12/30 10:24:04;;;;;;;;;31.00;29.25;;;;;;;;5036774;23;12472;-71
2023/12/30 10:26:33;;;;;;;;;40.50;37.25;;;;;;;;4986413;28;8825;-73
2023/12/30 10:28:59;;;;;;;;;30.75;27.75;;;;;;;;4968579;28;8828;-73
2023/12/30 10:31:24;;;;;;;;;40.00;36.00;;;;;;;;4968520;28;11630;-74
2023/12/30 10:33:51;;;;;;;;;38.75;36.25;;;;;;;;4985805;28;8951;-72
2023/12/30 10:36:17;;;;;;;;;38.75;33.00;;;;;;;;4985820;28;8817;-70
2023/12/30 10:38:43;;;;;;;;;37.00;30.50;;;;;;;;4985741;28;11646;-70
2023/12/30 10:41:08;;;;;;;;;41.75;36.50;;;;;;;;4972554;28;11707;-71
2023/12/30 10:43:34;;;;;;;;;37.75;31.25;;;;;;;;4972961;28;8823;-73
2023/12/30 10:46:00;;;;;;;;;0.00;0.00;;;;;;;;4972711;28;8831;-72
2023/12/30 10:48:30;;;;;;;;;39.75;35.50;;;;;;;;4993925;28;11605;-72
2023/12/30 10:50:56;;;;;;;;;42.00;33.50;;;;;;;;4972264;28;8817;-71
2023/12/30 10:53:44;;;;;;;;;33.25;32.50;;;;;;;;4971527;28;12369;-72
2023/12/30 10:56:11;;;;;;;;;39.50;37.00;;;;;;;;4971359;28;8828;-72
2023/12/30 10:58:39;;;;;;;;;43.50;35.75;;;;;;;;4973094;28;11616;-71
2023/12/30 11:01:04;;;;;;;;;39.50;35.25;;;;;;;;4972866;28;11618;-72
2023/12/30 11:03:31;;;;;;;;;43.25;38.25;;;;;;;;4972827;28;11656;-72
2023/12/30 11:05:59;;;;;;;;;45.50;38.75;;;;;;;;4972871;28;8824;-72
2023/12/30 11:08:25;;;;;;;;;39.50;37.00;;;;;;;;4972723;28;11746;-72
2023/12/30 11:10:50;;;;;;;;;34.50;33.00;;;;;;;;4971291;28;11608;-72
2023/12/30 11:13:18;;;;;;;;;42.50;38.00;;;;;;;;4972767;28;8920;-72
2023/12/30 11:15:43;;;;;;;;;38.50;36.50;;;;;;;;4972688;28;8935;-72
2023/12/30 11:18:14;;;;;;;;;45.00;39.00;;;;;;;;4972473;28;11660;-72
2023/12/30 11:20:44;;;;;;;;;46.75;38.25;;;;;;;;4972641;28;8817;-72
2023/12/30 11:23:10;;;;;;;;;38.00;36.50;;;;;;;;4972608;28;11644;-71
2023/12/30 11:25:43;;;;;;;;;42.50;39.25;;;;;;;;4955044;28;11606;-72
2023/12/30 11:28:12;;;;;;;;;44.50;39.50;;;;;;;;4954960;28;11643;-72
2023/12/30 11:30:37;;;;;;;;;43.25;39.50;;;;;;;;4972221;28;11059;-71
2023/12/30 11:33:03;;;;;;;;;46.00;39.25;;;;;;;;4972113;28;11637;-71
2023/12/30 11:35:28;;;;;;;;;48.75;39.00;;;;;;;;4970610;28;8809;-71
2023/12/30 11:37:56;;;;;;;;;46.00;38.50;;;;;;;;4972297;28;8867;-71
2023/12/30 11:40:23;;;;;;;;;40.25;36.00;;;;;;;;4972326;28;8785;-71
2023/12/30 11:42:48;;;;;;;;;46.25;39.00;;;;;;;;4972019;28;11600;-71
2023/12/30 11:45:14;;;;;;;;;37.50;35.50;;;;;;;;4971956;28;11702;-71
2023/12/30 11:47:39;;;;;;;;;41.75;37.50;;;;;;;;4971847;28;8801;-72
2023/12/30 11:50:05;;;;;;;;;40.50;35.50;;;;;;;;4971702;28;8817;-71
2023/12/30 11:52:30;;;;;;;;;36.50;34.00;;;;;;;;4970906;28;8871;-70
2023/12/30 11:54:55;;;;;;;;;40.50;34.00;;;;;;;;4971405;28;11572;-71
2023/12/30 11:57:21;;;;;;;;;36.75;34.50;;;;;;;;4971691;28;8860;-71
2023/12/30 11:59:46;;;;;;;;;41.75;33.50;;;;;;;;4971614;28;8805;-71
2023/12/30 12:02:13;;;;;;;;;40.50;35.75;;;;;;;;4971523;28;9753;-71
2023/12/30 12:04:38;;;;;;;;;43.00;38.00;;;;;;;;4971359;28;8821;-71
2023/12/30 12:07:03;;;;;;;;;33.75;30.25;;;;;;;;4971172;28;11604;-71
2023/12/30 12:09:29;;;;;;;;;45.50;36.50;;;;;;;;4953958;28;8934;-71
2023/12/30 12:11:54;;;;;;;;;43.75;37.00;;;;;;;;4971403;28;8926;-71
2023/12/30 12:14:19;;;;;;;;;36.25;33.00;;;;;;;;4971099;28;8801;-71
2023/12/30 12:16:45;;;;;;;;;45.25;38.75;;;;;;;;4971193;28;8900;-71
2023/12/30 12:19:10;;;;;;;;;40.50;37.75;;;;;;;;4970955;28;8809;-71
2023/12/30 12:21:36;;;;;;;;;42.25;37.00;;;;;;;;4970867;28;8813;-71
2023/12/30 12:24:01;;;;;;;;;37.50;36.00;;;;;;;;4971394;28;8821;-71
2023/12/30 12:26:28;;;;;;;;;39.25;34.25;;;;;;;;4970869;28;8959;-71
2023/12/30 12:28:54;;;;;;;;;39.75;36.25;;;;;;;;4970854;28;8851;-72
2023/12/30 12:31:19;;;;;;;;;42.75;39.00;;;;;;;;4971026;28;11602;-73
2023/12/30 12:33:44;;;;;;;;;35.25;31.75;;;;;;;;4970343;28;8906;-71
2023/12/30 12:36:10;;;;;;;;;39.00;36.25;;;;;;;;4970572;28;8817;-72
2023/12/30 12:38:35;;;;;;;;;41.50;34.75;;;;;;;;4970114;28;8809;-70
2023/12/30 12:41:00;;;;;;;;;45.00;39.00;;;;;;;;4970908;28;8870;-69
2023/12/30 12:43:26;;;;;;;;;48.25;40.25;;;;;;;;4970863;28;8785;-69
2023/12/30 12:45:51;;;;;;;;;40.75;36.25;;;;;;;;4953173;28;8837;-68
2023/12/30 12:48:16;;;;;;;;;44.50;38.00;;;;;;;;4969853;28;8978;-69
2023/12/30 12:50:42;;;;;;;;;40.50;35.75;;;;;;;;4970377;28;8963;-69
2023/12/30 12:53:07;;;;;;;;;45.25;38.00;;;;;;;;4970712;28;8825;-69
2023/12/30 12:55:33;;;;;;;;;41.50;37.50;;;;;;;;4971791;28;8813;-71
2023/12/30 12:57:58;;;;;;;;;40.50;35.75;;;;;;;;4968426;28;8831;-70
2023/12/30 13:00:25;;;;;;;;;36.25;36.25;;;;;;;;4968293;28;8832;-70
